Tiempo atmosférico en la estación meteorológica de Tortosa, Tarragona (44 m.)



Fecha
DESCASC
Temp. máxima en grados centígrados (hora)
DESCASC
Temp. mínima en grados centígrados (hora)
DESCASC
Temp. media en grados centígrados
DESCASC
Racha de viento máxima en m/sg (hora)
DESCASC
Velocidad máxima media en intervalos de 10 minutos(hora)
DESCASC
Precipitaciones diarias en mm
DESCASC
Precipitaciones de 00:00 a 06:00 en mm
DESCASC
Precipitaciones de 06:00 a 12:00 en mm
DESCASC
Precipitaciones de 12:00 a 18:00 en mm
DESCASC
Precipitaciones de 18:00 a 24:00 en mm
DESCASC
16-06-2019 30 (16:30) 16.3 (06:40) 23.1 10.56 (14:30) 5.83 (14:20) 0 0 0 0 0
15-06-2019 33.4 (15:50) 17 (04:20) 25.2 11.11 (13:00) 4.44 (07:10) 0 0 0 0 0
14-06-2019 29.8 (14:40) 16.2 (03:00) 23 9.17 (18:40) 5.28 (18:40) 0 0 0 0 0
13-06-2019 24.3 (17:10) 13.7 (00:00) 19 9.44 (15:30) 5.28 (14:40) 0 0 0 0 0
12-06-2019 26.1 (14:50) 12.3 (00:00) 19.2 10.56 (16:30) 5.28 (19:50) 0 0 0 0 0
11-06-2019 21.4 (00:00) 13.5 (00:00) 17.4 11.67 (01:10) 6.39 (01:20) 0 0 0 0 0
10-06-2019 31.2 (16:20) 16.6 (00:00) 23.9 10.83 (04:00) 5.28 (04:00) 0 0 0 0 0
09-06-2019 27.9 (16:10) 15.7 (00:00) 21.8 7.22 (17:20) 4.44 (17:20) 0 0 0 0 0
08-06-2019 27.1 (14:10) 16.2 (00:00) 21.7 11.11 (15:40) 6.11 (15:10) 0 0 0 0 0
07-06-2019 30.2 (15:00) 16.4 (00:00) 23.3 9.17 (14:20) 4.17 (12:50) 0 0 0 0 0
06-06-2019 26.8 (13:30) 13.8 (00:00) 20.3 12.22 (15:40) 6.39 (14:10) 0 0 0 0 0
05-06-2019 27.6 (12:20) 17.9 (00:00) 22.8 20.56 (17:20) 8.89 (17:30) 1.4 0 0 1.4 0
04-06-2019 27.2 (13:20) 15.7 (00:00) 21.5 12.5 (17:40) 6.39 (19:30) 0 0 0 0 0
03-06-2019 29.4 (16:40) 15.1 (00:00) 22.3 11.94 (14:30) 6.67 (16:50) 0 0 0 0 0
02-06-2019 30.5 (17:50) 14 (00:00) 22.3 9.72 (16:30) 6.11 (16:10) 0 0 0 0 0
01-06-2019 29.9 (18:00) 14.6 (00:00) 22.3 10 (15:50) 5.56 (15:50) 0 0 0 0 0
31-05-2019 28.2 (17:30) 14.4 (00:00) 21.3 11.11 (14:50) 5.83 (16:30) 0 0 0 0 0
30-05-2019 28.2 (13:40) 13.3 (00:00) 20.8 9.72 (16:30) 5.56 (17:30) 0 0 0 0 0
29-05-2019 27 (17:20) 14.5 (00:00) 20.8 16.11 (05:20) 7.78 (05:30) -- 0 0 -- 0
28-05-2019 26.1 (16:10) 15.6 (00:00) 20.9 18.33 (18:40) 8.61 (15:00) 0 0 0 0 0
27-05-2019 29.2 (16:20) 16.3 (00:00) 22.8 15.56 (04:30) 8.89 (03:40) 0 0 0 0 0
26-05-2019 27.6 (16:30) 15.4 (00:00) 21.5 17.5 (04:20) 8.06 (02:40) 0 0 0 0 0
25-05-2019 25.8 (16:50) 15 (00:00) 20.4 13.33 (08:30) 6.94 (07:00) 0.2 0 0 0.2 0
24-05-2019 19 (00:00) 15 (00:00) 17 6.67 (11:40) 3.61 (04:10) 27.2 7.8 5.6 6.2 7.6
23-05-2019 28.4 (14:10) 13.3 (00:00) 20.8 9.17 (16:10) 4.44 (15:00) 0 0 0 0 0
22-05-2019 28.5 (14:20) 12.8 (00:00) 20.7 9.72 (16:10) 5.28 (16:10) 0 0 0 0 0
21-05-2019 26.8 (14:00) 10.7 (06:40) 18.7 9.44 (17:40) 5.28 (16:40) 0 0 0 0 0

Gráficas

Temp. máximas Temp. mínimas Temp. medias Precipitaciones Rachas de viento máximas Velocidades máximas media en intervalos de 10 minutos

Datos horarios

Fecha y hora oficial Temperatura (ºC) Velocidad del viento (km/h) Dirección del viento Racha (km/h) Dirección de racha Precipitación (mm) Presión (hPa) Tendencia (hPa) Humedad (%)
2019-06-19 23:00:00 22 10 Sudoeste 16 Sudoeste 0 1007.6 1.4 80
2019-06-19 22:00:00 23.1 8 Sur 20 Sur 0 1007.1 0.9 75
2019-06-19 21:00:00 24.8 9 Sudeste 28 Sudeste 0 1006.6 0.4 65
2019-06-19 20:00:00 27.5 16 Sur 30 Sur 0 1006.2 -0.3 52
2019-06-19 19:00:00 29.6 17 Sudeste 35 Sur 0 1006.2 -0.5 40
2019-06-19 18:00:00 30.9 15 Sudeste 32 Sudeste 0 1006.2 -0.9 43
2019-06-19 17:00:00 32.3 18 Sudeste 33 Sudeste 0 1006.5 -1.1 43
2019-06-19 16:00:00 33.1 14 Sur 28 Sudeste 0 1006.7 -1.3 44
2019-06-19 15:00:00 32.5 15 Sudeste 28 Sur 0 1007.1 -1.3 46
2019-06-19 14:00:00 31.2 18 Sur 28 Sudeste 0 1007.6 -0.8 49
2019-06-19 13:00:00 30.8 13 Sur 23 Sur 0 1008 -0.8 47
2019-06-19 12:00:00 28.9 13 Sur 23 Sudeste 0 1008.4 -0.6 53
2019-06-19 11:00:00 27 5 Sur 13 Este 0 1008.4 -0.5 51
2019-06-19 10:00:00 24.8 4 Sudeste 9 Este 0 1008.8 0.2 59
2019-06-19 09:00:00 22.4 3 Este 6 Sur 0 1009 0.5 69
2019-06-19 08:00:00 19 4 Norte 6 Norte 0 1008.9 0.6 69
2019-06-19 07:00:00 17.4 4 Norte 6 Noroeste 0 1008.6 0.2 70
2019-06-19 06:00:00 17.4 2 Este 8 Noroeste 0 1008.5 0.3 70
2019-06-19 05:00:00 17.9 2 Noroeste 10 Oeste 0 1008.3 -0.3 69
2019-06-19 04:00:00 18.4 8 Oeste 13 Sudoeste 0 1008.4 -0.3 71
2019-06-19 03:00:00 18.1 8 Sudoeste 12 Sudoeste 0 1008.2 -0.5 79
2019-06-19 02:00:00 19.1 6 Sudoeste 16 Sur 0 1008.6 0.1 81
2019-06-19 01:00:00 19.8 10 Sudeste 22 Sudeste 0 1008.7 0.4 80
2019-06-19 00:00:00 20.4 11 Sudeste 26 Sudeste 0 1008.7 0.6 74
2019-06-18 23:00:00 20.9 14 Sudeste 30 Sudeste 0 1008.5 0.7 70
2019-06-18 22:00:00 21.6 14 Sudeste 31 Sudeste 0 1008.3 0.6 66
2019-06-18 21:00:00 23.4 16 Sudeste 36 Sudeste 0 1008.1 0.3 57
2019-06-18 20:00:00 26 20 Sudeste 36 Sudeste 0 1007.8 -0.2 37
2019-06-18 19:00:00 28.8 22 Sudeste 46 Sudeste 0 1007.7 -0.7 29
2019-06-18 18:00:00 30.2 24 Sudeste 48 Sur 0 1007.8 -1.1 17
2019-06-18 17:00:00 31 21 Sur 41 Sur 0 1008 -1.2 23
2019-06-18 16:00:00 28 21 Este 40 Este 0 1008.4 -1.2 46
2019-06-18 15:00:00 29 15 Sudeste 35 Sudeste 0 1008.9 -1.1 46
2019-06-18 14:00:00 29.5 18 Sudeste 34 Sudeste 0 1009.2 -1.2 49
2019-06-18 13:00:00 27.9 17 Sudeste 34 Sudeste 0 1009.6 -1 53
2019-06-18 12:00:00 27.4 15 Sudeste 28 Sudeste 0 1010 -0.6 55
2019-06-18 11:00:00 26.2 14 Sudeste 26 Sur 0 1010.4 0 58
2019-06-18 10:00:00 24.1 10 Sudeste 18 Sudeste 0 1010.6 0.6 64
2019-06-18 09:00:00 21.9 9 Sudeste 16 Sur 0 1010.6 0.8 77
2019-06-18 08:00:00 20.3 10 Sur 20 Sudeste 0 1010.4 0.7 84
2019-06-18 07:00:00 18.3 10 Sudoeste 20 Sur 0 1010 0.1 88
2019-06-18 06:00:00 19.3 12 Sudoeste 18 Sudoeste 0 1009.8 -0.4 82
2019-06-18 05:00:00 19.8 12 Sur 20 Sur 0 1009.7 -0.9 78
2019-06-18 04:00:00 19.9 11 Sur 19 Sur 0 1009.9 -1 75
2019-06-18 03:00:00 20.3 8 Sur 23 Sudeste 0 1010.2 -0.7 63
2019-06-18 02:00:00 20.5 14 Sudeste 22 Sur 0 1010.6 -0.3 58
2019-06-18 01:00:00 20.9 12 Sudeste 24 Sudeste 0 1010.9 0.6 57
2019-06-18 00:00:00 21.4 16 Sudeste 27 Sudeste 0 1010.9 0.9 54
2019-06-17 23:00:00 21.8 14 Sudeste 24 Sudeste 0 1010.9 1 56
2019-06-17 22:00:00 22.9 13 Sudeste 24 Sudeste 0 1010.3 0.5 50
2019-06-17 21:00:00 24.9 13 Sudeste 31 Sudeste 0 1010 0.2 40
2019-06-17 20:00:00 27 15 Sur 32 Sur 0 1009.9 -0.2 39
2019-06-17 19:00:00 29.1 17 Sur 28 Sur 0 1009.8 -0.7 36
2019-06-17 18:00:00 27.5 13 Sudeste 33 Sudeste 0 1009.8 -0.9 46
2019-06-17 17:00:00 28.7 19 Sudeste 33 Sudeste 0 1010.1 -1.1 44
2019-06-17 16:00:00 28.2 13 Sudeste 31 Sudeste 0 1010.5 -1.1 52
2019-06-17 15:00:00 29.1 15 Sudeste 31 Sudeste 0 1010.7 -1.2 52
2019-06-17 14:00:00 29.8 13 Sudeste 30 Sur 0 1011.2 -1.1 49
2019-06-17 13:00:00 29.3 12 Sudeste 26 Sudeste 0 1011.6 -1 46
2019-06-17 12:00:00 27.9 9 Sur 19 Sur 0 1011.9 -0.9 51
2019-06-17 11:00:00 25.8 9 Sur 17 Sur 0 1012.3 -0.3 58
2019-06-17 10:00:00 23.7 6 Sur 14 Sur 0 1012.6 0.4 67
2019-06-17 09:00:00 21.4 3 Sudoeste 5 Sudoeste 0 1012.8 0.8 75
2019-06-17 08:00:00 19.2 2 Este 6 Norte 0 1012.6 0.7 80
2019-06-17 07:00:00 16.5 4 Norte 6 Norte 0 1012.2 0.2 88
2019-06-17 06:00:00 16.8 3 Sudoeste 12 Sudoeste 0 1012 0.1 89
2019-06-17 05:00:00 17.3 9 Sudoeste 12 Oeste 0 1011.9 -0.3 88
2019-06-17 04:00:00 17.4 8 Sudoeste 12 Sudoeste 0 1012 -0.8 82
2019-06-17 03:00:00 18.1 2 Sudeste 6 Norte 0 1011.9 -1.2 80
2019-06-17 02:00:00 18.5 2 Este 7 Sudeste 0 1012.2 -1 79
2019-06-17 01:00:00 19.1 5 Sudeste 14 Sudeste 0 1012.8 0.1 76
2019-06-17 00:00:00 19.7 10 Sudeste 16 Sudeste 0 1013.1 0.6 72
2019-06-16 23:00:00 20.4 7 Sur 13 Sur 0 1013.2 0.6 69
2019-06-16 22:00:00 21.3 6 Sur 18 Sur 0 1012.7 0.1 61
2019-06-16 21:00:00 22.8 11 Sudeste 22 Sur 0 1012.5 -0.1 53
2019-06-16 20:00:00 25.2 15 Sur 28 Sur 0 1012.6 -0.7 41
2019-06-16 19:00:00 25.9 13 Sudeste 26 Sudeste 0 1012.6 -1.3 45
2019-06-16 18:00:00 28.3 12 Sudeste 28 Sudeste 0 1012.6 -1.5 36
2019-06-16 17:00:00 29 14 Sudeste 31 Sur 0 1013.3 -1.2 37
2019-06-16 16:00:00 28.9 17 Sudeste 37 Sudeste 0 1013.9 -1.1 38
2019-06-16 15:00:00 28 17 Sudeste 38 Sudeste 0 1014.1 -1.5 40
2019-06-16 14:00:00 27.7 19 Sudeste 37 Sudeste 0 1014.5 -1.5 39
2019-06-16 13:00:00 29 13 Sudeste 26 Sudeste 0 1015 -1.1 38
2019-06-16 12:00:00 28.6 10 Sudeste 22 Sur 0 1015.6 -0.4 42
2019-06-16 11:00:00 26.2 6 Sudeste 15 Sudeste 0 1016 0.1 46
2019-06-16 10:00:00 23.9 4 Este 10 Sudeste 0 1016.1 0.4 55
2019-06-16 09:00:00 22.9 4 Nordeste 9 Norte 0 1016 0.5 64
2019-06-16 08:00:00 18.6 5 Norte 10 Noroeste 0 1015.9 0.4 79
2019-06-16 07:00:00 16.3 4 Noroeste 8 Noroeste 0 1015.7 -0.1 89
2019-06-16 06:00:00 16.7 5 Norte 8 Norte 0 1015.5 -0.6 86
2019-06-16 05:00:00 18 6 Oeste 9 Oeste 0 1015.5 -0.7 86
2019-06-16 04:00:00 18.1 3 Oeste 10 Sudoeste 0 1015.8 -0.5 86
2019-06-16 03:00:00 18.3 7 Sudoeste 10 Oeste 0 1016.1 0.2 85
2019-06-16 02:00:00 18.7 4 Sudoeste 10 Este 0 1016.2 1.3 83
2019-06-16 01:00:00 19.2 5 Sur 16 Este 0 1016.3 3.2 81
2019-06-16 00:00:00 19.8 3 Sur 12 Sudoeste 0 1015.9 4.1 77
2019-06-15 23:00:00 20.7 8 Sudoeste 23 Sudeste 0 1014.9 3.8 71
2019-06-15 22:00:00 23 8 Este 24 Sudeste 0 1013.1 2.4 56
2019-06-15 21:00:00 26 7 Sur 19 Sudeste 0 1011.8 1.2 33
2019-06-15 20:00:00 28 10 Sudeste 21 Sudeste 0 1011.1 0.3 27
2019-06-15 19:00:00 29.5 12 Sudeste 28 Sudeste 0 1010.7 0.1 24
2019-06-15 18:00:00 30.2 13 Sudeste 26 Sudeste 0 1010.6 0 24
2019-06-15 17:00:00 31 14 Sudeste 34 Sur 0 1010.8 -0.3 23
2019-06-15 16:00:00 32.4 13 Este 35 Norte 0 1010.6 -1 23
2019-06-15 15:00:00 32.8 12 Norte 28 Norte 0 1010.6 -1.1 17
2019-06-15 14:00:00 31.5 11 Noroeste 30 Norte 0 1011.1 -0.7 20
2019-06-15 13:00:00 30.5 15 Norte 40 Nordeste 0 1011.6 -0.1 22
2019-06-15 12:00:00 28.8 13 Norte 31 Norte 0 1011.7 0.6 26
2019-06-15 11:00:00 26.7 13 Norte 33 Noroeste 0 1011.8 1.2 31
2019-06-15 10:00:00 25.2 12 Norte 34 Norte 0 1011.7 1.6 33
2019-06-15 09:00:00 23 15 Norte 36 Norte 0 1011.1 1.6 42
2019-06-15 08:00:00 20.7 16 Norte 34 Norte 0 1010.6 1.9 50
2019-06-15 07:00:00 19.2 16 Norte 31 Noroeste 0 1010.1 1.3 55
2019-06-15 06:00:00 19.6 13 Norte 28 Norte 0 1009.5 0.6 50
2019-06-15 05:00:00 17.2 10 Norte 15 Oeste 0 1008.7 0.2 91
2019-06-15 04:00:00 17.2 7 Noroeste 10 Noroeste 0 1008.8 0.4 90
2019-06-15 03:00:00 17.9 4 Norte 9 Sudoeste 0 1008.9 1.1 90
2019-06-15 02:00:00 18.5 6 Sudoeste 13 Sur 0 1008.5 1.1 89
2019-06-15 01:00:00 18.9 6 Sudoeste 14 Sudoeste 0 1008.4 1.6 88
2019-06-15 00:00:00 19.6 8 Oeste 14 Sur 0 1007.8 1.7 83
2019-06-14 23:00:00 20.2 8 Sur 12 Sur 0 1007.4 1.9 77
2019-06-14 22:00:00 21.4 4 Sur 23 Este 0 1006.8 1.7 71
2019-06-14 21:00:00 23.8 12 Sudeste 22 Sudeste 0 1006.1 0.9 55
2019-06-14 20:00:00 25.5 9 Sudeste 25 Este 0 1005.5 0.3 45
2019-06-14 19:00:00 26.2 15 Sudeste 33 Sudeste 0 1005.1 0 46
2019-06-14 18:00:00 27.7 15 Sudeste 30 Sudeste 0 1005.2 0 39
2019-06-14 17:00:00 27.6 17 Sudeste 30 Sudeste 0 1005.2 -0.4 42
2019-06-14 16:00:00 27.7 19 Sudeste 28 Este 0 1005.1 -0.8 41
2019-06-14 15:00:00 28.9 11 Sudeste 27 Sur 0 1005.2 0.3 35
2019-06-14 14:00:00 27.6 14 Sur 25 Sudeste 0 1005.6 -0.2 35
2019-06-14 13:00:00 27.3 10 Sudeste 23 Sudeste 0 1005.9 0.2 39
2019-06-14 12:00:00 26.6 7 Sur 15 Sur 0 1004.9 -0.4 38
2019-06-14 11:00:00 22.5 3 Sudoeste 15 Sudoeste 0 1005.8 0.9 42
2019-06-14 10:00:00 22.2 10 Noroeste 21 Nordeste 0 1005.7 1.1 40
2019-06-14 09:00:00 20.9 5 Norte 15 Noroeste 0 1005.3 1 42
2019-06-14 08:00:00 17.7 4 Nordeste 12 Oeste 0 1004.9 0.3 49
2019-06-14 07:00:00 16.7 4 Norte 14 Noroeste 0 1004.6 0.2 50
2019-06-14 06:00:00 16.5 5 Norte 13 Oeste 0 1004.3 -1.6 46
2019-06-14 05:00:00 16.2 6 Noroeste 10 Noroeste 0 1004.6 -2.2 51
2019-06-14 04:00:00 16.5 6 Norte 16 Norte 0 1004.4 -3.6 44
2019-06-14 03:00:00 16.2 4 Nordeste 10 Norte 0 1005.9 -2.4 55
2019-06-14 02:00:00 16.3 5 Norte 12 Sudoeste 0 1006.8 -1.6 61
2019-06-14 01:00:00 17.1 10 Sudoeste 13 Sudoeste 0 1008 0.2 38
2019-06-14 00:00:00 17 5 Oeste 16 Sudoeste 0 1008.3 0.7 56
2019-06-13 23:00:00 17.1 11 Sudoeste 16 Sudoeste 0 1008.4 0.9 68
2019-06-13 22:00:00 18.3 9 Sur 13 Sur 0 1007.8 0.6 54
2019-06-13 21:00:00 20.2 8 Sur 15 Sur 0 1007.6 0.1 47
2019-06-13 20:00:00 21.6 8 Sur 16 Sur 0 1007.5 -0.4 34
2019-06-13 19:00:00 22.7 10 Sur 19 Sudeste 0 1007.2 -1.1 39
2019-06-13 18:00:00 23.4 10 Sudeste 25 Este 0 1007.5 -1.3 40
2019-06-13 17:00:00 24 14 Sudeste 29 Sudeste 0 1007.9 -1.4 48
2019-06-13 16:00:00 21.1 15 Este 34 Este 0 1008.3 -0.9 64
2019-06-13 15:00:00 21.4 18 Este 32 Este 0 1008.8 -1.1 63
2019-06-13 14:00:00 22.1 17 Este 29 Sudeste 0 1009.3 -1.2 62
2019-06-13 13:00:00 22.1 10 Este 26 Sudeste 0 1009.2 -0.9 62
2019-06-13 12:00:00 21.8 9 Sudeste 19 Sudeste 0 1009.9 0.1 66
2019-06-13 11:00:00 19 9 Sudeste 20 Sudeste 0 1010.5 1 73
2019-06-13 10:00:00 17.9 6 Sudeste 20 Sudoeste 0 1010.1 0.8 78
2019-06-13 09:00:00 17.2 11 Sudoeste 19 Sudoeste 0 1009.8 0.9 83
2019-06-13 08:00:00 16.9 10 Sur 21 Sudoeste 0 1009.5 0.6 86
2019-06-13 07:00:00 17.2 10 Sur 22 Sudeste 0 1009.3 0 76
2019-06-13 06:00:00 16.7 7 Sudeste 23 Sur 0 1008.9 -0.7 76
2019-06-13 05:00:00 15.9 9 Sur 15 Sur 0 1008.9 -1.1 71
2019-06-13 04:00:00 15.1 9 Sur 15 Sur 0 1009.3 -1.1 72
2019-06-13 03:00:00 13.9 7 Sur 15 Sudeste 0 1009.6 -1 75
2019-06-13 02:00:00 13.9 9 Sudeste 13 Sudeste 0 1010 -0.5 74
2019-06-13 01:00:00 14.8 10 Sudeste 13 Sudeste 0 1010.4 0.3 71
2019-06-13 00:00:00 15.3 7 Sudeste 11 Sudeste 0 1010.6 1.1 70
2019-06-12 23:00:00 16.3 7 Sudeste 15 Sudeste 0 1010.5 1.4 64
2019-06-12 22:00:00 17.5 10 Sudeste 25 Sudeste 0 1010.1 1.4 59
2019-06-12 21:00:00 18.8 15 Sudeste 30 Sudeste 0 1009.5 0.5 52
2019-06-12 20:00:00 20.3 15 Sudeste 33 Este 0 1009.1 -0.1 39
2019-06-12 19:00:00 22 16 Sudeste 34 Sudeste 0 1008.7 -0.5 39
2019-06-12 18:00:00 22.5 15 Sudeste 31 Sudeste 0 1009 -0.6 36
2019-06-12 17:00:00 24.4 16 Sudeste 38 Este 0 1009.2 -0.7 31
2019-06-12 16:00:00 24.1 18 Sudeste 36 Sudeste 0 1009.2 -1.1 32
2019-06-12 15:00:00 24.3 17 Sudeste 31 Este 0 1009.6 -1.2 32
2019-06-12 14:00:00 25.6 13 Sudeste 26 Sudeste 0 1009.9 -1.2 28
2019-06-12 13:00:00 24.8 6 Este 17 Nordeste 0 1010.3 -1.1 24
2019-06-12 12:00:00 23.7 9 Nordeste 20 Nordeste 0 1010.8 -0.5 27
2019-06-12 11:00:00 23.1 9 Norte 21 Norte 0 1011.1 0 29
2019-06-12 10:00:00 20.3 5 Sudeste 12 Nordeste 0 1011.4 1.1 34
2019-06-12 09:00:00 18.5 3 Nordeste 6 Este 0 1011.3 1.7 43
2019-06-12 08:00:00 14.9 3 Sudeste 11 Oeste 0 1011.1 1.8 53
2019-06-12 07:00:00 12.6 3 Sur 16 Noroeste 0 1010.3 0.9 57
2019-06-12 06:00:00 12.9 5 Noroeste 16 Noroeste 0 1009.6 -0.4 53
2019-06-12 05:00:00 12.8 5 Norte 24 Noroeste 0 1009.3 -1 55
2019-06-12 04:00:00 12.7 7 Noroeste 13 Noroeste 0 1009.4 -1.1 55
2019-06-12 03:00:00 13.6 8 Norte 10 Norte 0 1010 -0.4 55
2019-06-12 02:00:00 14.6 4 Norte 19 Noroeste 0 1010.3 0 55
2019-06-12 01:00:00 13.6 9 Norte 21 Norte 0 1010.5 1.1 57
2019-06-12 00:00:00 13.5 5 Noroeste 11 Norte 0 1010.4 1.8 75
2019-06-11 23:00:00 14.3 6 Sur 17 Sudoeste 0 1010.3 2.7 77
2019-06-11 22:00:00 15.3 10 Sudoeste 15 Sur 0 1009.4 2.1 69
2019-06-11 21:00:00 17 11 Sur 21 Sur 0 1008.6 1.1 62
2019-06-11 20:00:00 17.4 11 Sudeste 22 Sudeste 0 1007.6 -0.4 57
2019-06-11 19:00:00 18.4 4 Sudeste 15 Noroeste 0 1007.3 -0.4 46
2019-06-11 18:00:00 17.3 8 Norte 26 Noroeste 0 1007.5 -0.4 52
2019-06-11 17:00:00 17.2 13 Noroeste 31 Noroeste 0 1008 0 49
2019-06-11 16:00:00 18.5 13 Noroeste 32 Oeste 0 1007.7 -0.2 43
2019-06-11 15:00:00 19 15 Noroeste 39 Noroeste 0 1007.9 0.1 42
2019-06-11 14:00:00 18.4 20 Noroeste 39 Noroeste 0 1008 0.6 45
2019-06-11 13:00:00 17.3 11 Noroeste 40 Noroeste 0 1007.9 0.7 48
2019-06-11 12:00:00 17 14 Noroeste 37 Noroeste 0 1007.8 0.6 47
2019-06-11 11:00:00 17.5 17 Noroeste 37 Noroeste 0 1007.4 0.5 45
2019-06-11 10:00:00 17 12 Norte 24 Noroeste 0 1007.2 0.5 46
2019-06-11 09:00:00 16.9 12 Norte 32 Norte 0 1007.2 0.5 46
2019-06-11 08:00:00 16.7 14 Norte 31 Nordeste 0 1006.9 0.2 45
2019-06-11 07:00:00 17.2 13 Norte 28 Norte 0 1006.7 -0.1 42
2019-06-11 06:00:00 17.6 9 Norte 26 Norte 0 1006.7 -0.7 37
2019-06-11 05:00:00 17.7 10 Norte 21 Norte 0 1006.7 -1.3 37
2019-06-11 04:00:00 17.9 9 Norte 19 Nordeste 0 1006.8 -1.5 35
2019-06-11 03:00:00 18.4 10 Norte 22 Norte 0 1007.4 -1.1 37
2019-06-11 02:00:00 19.7 11 Norte 42 Oeste 0 1008 -0.4 40
2019-06-11 01:00:00 20.6 16 Noroeste 40 Noroeste 0 1008.3 0.9 35
2019-06-11 00:00:00 21.4 10 Norte 28 Noroeste 0 1008.5 1.9 36
2019-06-10 23:00:00 22.5 11 Noroeste 36 Noroeste 0 1008.4 2.2 34
2019-06-10 22:00:00 23.5 6 Norte 24 Noroeste 0 1007.4 1.2 34
2019-06-10 21:00:00 25.2 5 Noroeste 20 Sur 0 1006.6 0.2 33
2019-06-10 20:00:00 26.2 12 Sur 22 Sur 0 1006.2 -0.4 43
2019-06-10 19:00:00 26.9 11 Sur 24 Sudoeste 0 1006.2 -0.9 35
2019-06-10 18:00:00 27.9 10 Sudeste 31 Noroeste 0 1006.4 -1 31
2019-06-10 17:00:00 27.6 17 Noroeste 36 Norte 0 1006.6 -1.6 26
2019-06-10 16:00:00 30.2 14 Noroeste 35 Noroeste 0 1007.1 -1.6 25
2019-06-10 15:00:00 29.3 15 Noroeste 34 Oeste 0 1007.4 -1.9 26
2019-06-10 14:00:00 28.8 13 Noroeste 32 Noroeste 0 1008.2 -1.4 28
2019-06-10 13:00:00 27.1 15 Noroeste 31 Oeste 0 1008.7 -0.9 32
2019-06-10 12:00:00 25.8 17 Noroeste 33 Oeste 0 1009.3 -0.4 33
2019-06-10 11:00:00 24 17 Noroeste 35 Oeste 0 1009.6 0 37
2019-06-10 10:00:00 22.8 17 Noroeste 32 Noroeste 0 1009.6 0.6 40
2019-06-10 09:00:00 22 12 Norte 31 Norte 0 1009.7 0.9 43
2019-06-10 08:00:00 20.2 12 Noroeste 35 Noroeste 0 1009.6 0.8 50
2019-06-10 07:00:00 18.7 9 Noroeste 30 Noroeste 0 1009 0.3 51
2019-06-10 06:00:00 19.1 12 Noroeste 24 Noroeste 0 1008.8 -0.2 49
2019-06-10 05:00:00 19.3 8 Noroeste 30 Noroeste 0 1008.8 -0.4 50
2019-06-10 04:00:00 20.3 19 Oeste 39 Oeste 0 1008.7 -0.6 48
2019-06-10 03:00:00 18.1 12 Oeste 29 Noroeste 0 1009 0.3 54
2019-06-10 02:00:00 16.9 3 Sudoeste 14 Oeste 0 1009.2 0.2 49
2019-06-10 01:00:00 17.5 5 Norte 22 Oeste 0 1009.3 0.9 49
2019-06-10 00:00:00 18.3 5 Sur 9 Sudeste 0 1008.7 0.8 47
2019-06-09 23:00:00 19.2 6 Sudeste 12 Sur 0 1009 1.3 46
2019-06-09 22:00:00 20.7 6 Sur 13 Sudeste 0 1008.4 0.9 39
2019-06-09 21:00:00 22.8 7 Sudeste 22 Sudeste 0 1007.9 0.1 31
2019-06-09 20:00:00 25 12 Sudeste 26 Sudeste 0 1007.7 -0.8 25
2019-06-09 19:00:00 27.4 8 Sudeste 22 Sur 0 1007.5 -0.8 15
2019-06-09 18:00:00 27.1 12 Sudeste 26 Este 0 1007.8 -1.7 15
2019-06-09 17:00:00 27.6 13 Sudeste 24 Sur 0 1008.5 -2.4 15
2019-06-09 16:00:00 27.6 9 Sur 22 Sudeste 0 1008.3 -2.3 20
2019-06-09 15:00:00 26.7 10 Sur 22 Sur 0 1009.5 -1.4 21
2019-06-09 14:00:00 25.2 12 Sur 21 Sur 0 1010.9 -0.6 22
2019-06-09 13:00:00 24.4 11 Sur 19 Sudoeste 0 1010.6 -1 23
2019-06-09 12:00:00 24.1 7 Sur 19 Sur 0 1010.9 -0.8 27
2019-06-09 11:00:00 23.2 8 Sur 13 Sudoeste 0 1011.5 -0.1 45
2019-06-09 10:00:00 20.8 5 Este 8 Este 0 1011.6 -0.1 56
2019-06-09 09:00:00 18.3 3 Norte 10 Noroeste 0 1011.7 0 63
2019-06-09 08:00:00 16.5 4 Norte 9 Norte 0 1011.6 -0.5 74
2019-06-09 07:00:00 16 2 Noroeste 9 Noroeste 0 1011.7 -1.7 73
2019-06-09 06:00:00 15.7 6 Noroeste 12 Noroeste 0 1011.7 -2.2 75
2019-06-09 05:00:00 15.8 6 Norte 8 Noroeste 0 1012.1 -2.6 75
2019-06-09 04:00:00 16 5 Sudoeste 9 Sudoeste 0 1013.4 -2.2 70
2019-06-09 03:00:00 16.5 0 Calma 8 Oeste 0 1013.9 -1.9 70
2019-06-09 02:00:00 16.7 5 Sudoeste 8 Sudoeste 0 1014.7 -1.5 71
2019-06-09 01:00:00 16.9 6 Sudoeste 10 Sudoeste 0 1015.6 -0.5 71
2019-06-09 00:00:00 17.5 8 Oeste 9 Oeste 0 1015.8 -0.6 69
2019-06-08 23:00:00 18.4 4 Sur 11 Sudeste 0 1016.2 0 64
2019-06-08 22:00:00 19.4 6 Sudeste 12 Sudeste 0 1016.1 0 60
2019-06-08 21:00:00 20.5 8 Sudeste 21 Sudeste 0 1016.4 0 56
2019-06-08 20:00:00 21.8 10 Sudeste 21 Sudeste 0 1016.2 -0.8 51
2019-06-08 19:00:00 23.7 12 Sudeste 30 Sudeste 0 1016.1 -1.6 46
2019-06-08 18:00:00 25.6 17 Sur 29 Sudeste 0 1016.4 -1.7 40
2019-06-08 17:00:00 26.2 15 Sudeste 36 Sur 0 1017 -1.5 38
2019-06-08 16:00:00 26 21 Sudeste 40 Sur 0 1017.7 -0.8 39
2019-06-08 15:00:00 26.7 20 Sur 38 Sudeste 0 1018.1 -0.4 40
2019-06-08 14:00:00 26.7 16 Sudeste 35 Sudeste 0 1018.5 -0.1 38
2019-06-08 13:00:00 26.7 15 Sur 29 Sudeste 0 1018.5 -0.2 38
2019-06-08 12:00:00 26.2 16 Sudeste 32 Sudeste 0 1018.5 -0.3 35
2019-06-08 11:00:00 24.3 5 Sur 14 Sur 0 1018.6 0 43
2019-06-08 10:00:00 22.8 6 Sur 15 Sur 0 1018.7 0.6 51
2019-06-08 09:00:00 21.6 4 Sur 9 Sur 0 1018.8 1 59
2019-06-08 08:00:00 18.4 0 Calma 5 Norte 0 1018.6 0.8 72
2019-06-08 07:00:00 16.3 3 Nordeste 8 Sur 0 1018.1 0.5 80
2019-06-08 06:00:00 17 5 Sudoeste 13 Sudoeste 0 1017.8 0.7 76
2019-06-08 05:00:00 17.6 4 Sudoeste 14 Sudoeste 0 1017.8 1.9 72
2019-06-08 04:00:00 18.2 3 Oeste 17 Nordeste 0 1017.6 2.1 71
2019-06-08 03:00:00 18.5 4 Este 20 Este 0 1017.1 2 75
2019-06-08 02:00:00 17.3 6 Nordeste 15 Noroeste 0 1015.9 1.7 41
2019-06-08 01:00:00 18.2 4 Nordeste 13 Oeste 0 1015.5 2.5 31
2019-06-08 00:00:00 19.9 4 Nordeste 18 Norte 0 1015.1 3.1 30
2019-06-07 23:00:00 21.1 11 Noroeste 17 Norte 0 1014.2 3 24
2019-06-07 22:00:00 22.2 8 Norte 19 Norte 0 1013 2.4 22
2019-06-07 21:00:00 24.2 9 Norte 26 Norte 0 1012 2 19
2019-06-07 20:00:00 25.8 10 Norte 28 Norte 0 1011.2 1.6 18
2019-06-07 19:00:00 25.9 9 Noroeste 27 Norte 0 1010.6 1.3 19
2019-06-07 18:00:00 27.4 13 Norte 29 Noroeste 0 1010 1.2 19
2019-06-07 17:00:00 26.5 9 Norte 23 Noroeste 0 1009.6 0.6 21
2019-06-07 16:00:00 26.9 9 Noroeste 32 Noroeste 0 1009.3 0.5 29
2019-06-07 15:00:00 29.3 12 Norte 33 Norte 0 1008.8 0.4 26
2019-06-07 14:00:00 28.8 12 Norte 29 Oeste 0 1009 1.2 28
2019-06-07 13:00:00 26.8 15 Noroeste 30 Noroeste 0 1008.8 1.9 31
2019-06-07 12:00:00 26.6 14 Norte 29 Noroeste 0 1008.4 1.6 33
2019-06-07 11:00:00 24.7 14 Noroeste 30 Noroeste 0 1007.8 1.9 41
2019-06-07 10:00:00 23.5 8 Sudeste 17 Sudeste 0 1006.9 1.1 58
2019-06-07 09:00:00 21.2 8 Sudeste 18 Sudeste 0 1006.8 1.1 72
2019-06-07 08:00:00 18.2 10 Sur 17 Sur 0 1005.9 0.2 86
2019-06-07 07:00:00 16.4 0 Calma 12 Sudeste 0 1005.8 -0.1 94
2019-06-07 06:00:00 16.5 7 Sudeste 16 Sudeste 0 1005.7 -0.4 94
2019-06-07 05:00:00 16.6 8 Sudeste 14 Sudeste 0 1005.7 -0.7 92
2019-06-07 04:00:00 17.3 9 Sudeste 15 Sudeste 0 1005.9 -1.1 90
2019-06-07 03:00:00 18.2 8 Sur 14 Sudeste 0 1006.1 -1.2 87
2019-06-07 02:00:00 18.7 9 Sur 16 Sur 0 1006.4 -1 85
2019-06-07 01:00:00 19.3 10 Sur 21 Sur 0 1007 -0.1 84
2019-06-07 00:00:00 19.4 10 Sudeste 26 Sudeste 0 1007.3 0.1 81
2019-06-06 23:00:00 19.6 14 Sudeste 26 Sur 0 1007.4 -0.1 81
2019-06-06 22:00:00 19.8 13 Sudeste 32 Sudeste 0 1007.1 -0.2 79
2019-06-06 21:00:00 20 16 Sudeste 30 Sudeste 0 1007.2 -0.3 73
2019-06-06 20:00:00 20.9 15 Sudeste 30 Este 0 1007.5 -0.4 64
2019-06-06 19:00:00 22.6 15 Sudeste 39 Sudeste 0 1007.3 -1.3 54
2019-06-06 18:00:00 23.8 20 Sudeste 43 Sudeste 0 1007.5 -1.5 51
2019-06-06 17:00:00 25.3 19 Sudeste 40 Sudeste 0 1007.9 -1.6 36
2019-06-06 16:00:00 24.9 23 Sudeste 44 Sudeste 0 1008.6 -0.9 39
2019-06-06 15:00:00 25.9 19 Sudeste 40 Sudeste 0 1009 -0.9 38
2019-06-06 14:00:00 25.7 20 Sudeste 38 Sudeste 0 1009.5 -0.4 38
2019-06-06 13:00:00 26.1 15 Sudeste 33 Sudeste 0 1009.5 -0.7 38
2019-06-06 12:00:00 25.4 16 Sudeste 31 Sur 0 1009.9 -0.3 37
2019-06-06 11:00:00 23.9 12 Sudeste 26 Sudeste 0 1009.9 -0.2 38
2019-06-06 10:00:00 22.1 4 Este 19 Norte 0 1010.2 0.6 39
2019-06-06 09:00:00 19.9 10 Norte 19 Norte 0 1010.2 0.9 44
2019-06-06 08:00:00 15.9 5 Noroeste 17 Norte 0 1010.1 1 60
2019-06-06 07:00:00 14.1 9 Noroeste 15 Noroeste 0 1009.6 0.7 63
2019-06-06 06:00:00 14.8 9 Noroeste 15 Noroeste 0 1009.3 0.4 60
2019-06-06 05:00:00 15.6 8 Noroeste 18 Norte 0 1009.1 0.3 57
2019-06-06 04:00:00 15.9 9 Norte 16 Norte 0 1008.9 0.4 56
2019-06-06 03:00:00 16.6 7 Norte 22 Noroeste 0 1008.9 0.3 55
2019-06-06 02:00:00 18.1 14 Noroeste 37 Noroeste 0 1008.8 0.8 48
2019-06-06 01:00:00 17.8 16 Noroeste 27 Noroeste 0 1008.5 1.6 47
2019-06-06 00:00:00 17.9 6 Noroeste 10 Noroeste 0 1008.6 3.3 47
2019-06-05 23:00:00 18.7 6 Norte 23 Noroeste 0 1008 2.8 45
2019-06-05 22:00:00 20 9 Noroeste 33 Norte 0 1006.9 2.7 39
2019-06-05 21:00:00 20.7 12 Norte 46 Norte 0 1005.3 2.3 37
2019-06-05 20:00:00 21.6 18 Norte 49 Noroeste 0 1005.2 2.5 36
2019-06-05 19:00:00 22 20 Noroeste 61 Noroeste 0 1004.2 0.8 33
2019-06-05 18:00:00 22 23 Noroeste 74 Noroeste 0 1003 -1 31
2019-06-05 17:00:00 22.2 17 Noroeste 60 Noroeste 0 1002.7 -0.5 36
2019-06-05 16:00:00 22.4 22 Noroeste 47 Oeste 0 1003.4 0.8 39
2019-06-05 15:00:00 19.6 18 Noroeste 50 Noroeste 0.2 1004 2.3 50
2019-06-05 14:00:00 20.1 17 Norte 36 Norte 0.4 1003.2 1.3 58
2019-06-05 13:00:00 20.8 10 Noroeste 35 Norte 0.8 1002.6 0.7 70
2019-06-05 12:00:00 26.5 9 Nordeste 22 Nordeste 0 1001.7 0.5 50
2019-06-05 11:00:00 21.3 12 Norte 23 Norte 0 1001.9 0.6 63
2019-06-05 10:00:00 20.6 6 Nordeste 17 Norte 0 1001.9 0.3 75
2019-06-05 09:00:00 19.8 6 Este 12 Sudeste 0 1001.2 -0.4 83
2019-06-05 08:00:00 19.3 4 Sur 12 Sur 0 1001.3 -0.7 87
2019-06-05 07:00:00 19.1 8 Sur 14 Sur 0 1001.6 -1 87
2019-06-05 06:00:00 18.8 5 Sur 9 Sur 0 1001.6 -1.6 85
2019-06-05 05:00:00 18.5 2 Sudoeste 10 Oeste 0 1002 -1.6 85
2019-06-05 04:00:00 18.6 5 Sudoeste 13 Sudoeste 0 1002.6 -1.3 86
2019-06-05 03:00:00 19.2 7 Sur 15 Sur 0 1003.2 -1 87
2019-06-05 02:00:00 19.1 9 Sur 20 Sur 0 1003.6 -0.8 88
2019-06-05 01:00:00 18.6 12 Sudoeste 21 Sur 0 1003.9 -0.3 86
2019-06-05 00:00:00 18.9 13 Sur 23 Sur 0 1004.2 0 84
2019-06-04 23:00:00 19.2 11 Sur 24 Sudeste 0 1004.4 0.1 85
2019-06-04 22:00:00 19.7 14 Sudeste 28 Sudeste 0 1004.2 -0.2 84
2019-06-04 21:00:00 20.5 15 Sudeste 34 Sudeste 0 1004.2 -0.4 79
2019-06-04 20:00:00 21.9 17 Sudeste 40 Sudeste 0 1004.3 -0.9 72
2019-06-04 19:00:00 23.4 17 Sudeste 41 Sudeste 0 1004.4 -1.2 66
2019-06-04 18:00:00 24.6 17 Sudeste 45 Este 0 1004.6 -1.5 59
2019-06-04 17:00:00 25 19 Sudeste 40 Sudeste 0 1005.2 -1.5 58
2019-06-04 16:00:00 25.6 18 Sudeste 40 Sudeste 0 1005.6 -1.9 56
2019-06-04 15:00:00 27 18 Sudeste 37 Sudeste 0 1006.1 -1.7 54
2019-06-04 14:00:00 26.3 18 Sudeste 33 Sudeste 0 1006.7 -1.4 55
2019-06-04 13:00:00 26.6 14 Sudeste 30 Sudeste 0 1007.5 -1 54
2019-06-04 12:00:00 25.3 14 Sudeste 31 Sudeste 0 1007.8 -0.5 58
2019-06-04 11:00:00 23.7 12 Sudeste 24 Sudeste 0 1008.1 -0.1 64
2019-06-04 10:00:00 23 9 Sudeste 17 Sur 0 1008.5 0.4 66
2019-06-04 09:00:00 21.3 4 Sudeste 9 Sudeste 0 1008.3 0.3 73
2019-06-04 08:00:00 18 4 Sur 10 Sudoeste 0 1008.2 0 79
2019-06-04 07:00:00 15.8 6 Sudoeste 10 Sudoeste 0 1008.1 -0.6 87
2019-06-04 06:00:00 16.2 6 Sudoeste 11 Sur 0 1008 -0.9 92
2019-06-04 05:00:00 16.6 7 Sudoeste 18 Sur 0 1008.2 -1.3 91
2019-06-04 04:00:00 17.4 9 Sur 21 Sudeste 0 1008.7 -1.3 87
2019-06-04 03:00:00 18.4 9 Sur 23 Sudeste 0 1008.9 -1.7 79
2019-06-04 02:00:00 18.9 10 Sudeste 26 Sudeste 0 1009.5 -1.4 77
2019-06-04 01:00:00 19.1 12 Sudeste 27 Sudeste 0 1010 -0.5 74
2019-06-04 00:00:00 19.6 10 Sudeste 27 Sudeste 0 1010.6 0.2 73
2019-06-03 23:00:00 19.9 13 Sudeste 31 Sudeste 0 1010.9 0.7 72
2019-06-03 22:00:00 20.5 11 Sudeste 24 Sudeste 0 1010.5 0 69
2019-06-03 21:00:00 22.2 12 Sudeste 30 Sudeste 0 1010.4 -0.8 59
2019-06-03 20:00:00 24.7 14 Sudeste 32 Sudeste 0 1010.2 -1.3 47
2019-06-03 19:00:00 25.2 17 Sur 30 Sur 0 1010.5 -0.7 36
2019-06-03 18:00:00 25.7 16 Sudeste 32 Sudeste 0 1011.2 -0.4 37
2019-06-03 17:00:00 27.7 19 Sur 38 Sudeste 0 1011.5 -0.4 29
2019-06-03 16:00:00 26.8 21 Este 38 Este 0 1011.2 -1.1 43
2019-06-03 15:00:00 26.8 19 Sudeste 43 Sudeste 0 1011.6 -0.8 47
2019-06-03 14:00:00 26.5 18 Sudeste 39 Sudeste 0 1011.9 -0.5 49
2019-06-03 13:00:00 26.5 18 Sudeste 39 Sudeste 0 1012.3 -0.4 52
2019-06-03 12:00:00 26.4 17 Sudeste 33 Sudeste 0 1012.4 -0.4 52
2019-06-03 11:00:00 25.6 13 Sudeste 27 Sudeste 0 1012.4 -0.3 51
2019-06-03 10:00:00 23.5 14 Sudeste 23 Sudeste 0 1012.7 0.1 57
2019-06-03 09:00:00 20.6 7 Sur 13 Sur 0 1012.8 0.4 56
2019-06-03 08:00:00 18.2 4 Sudoeste 9 Sudeste 0 1012.7 0.2 65
2019-06-03 07:00:00 15.1 4 Oeste 8 Oeste 0 1012.6 0 73
2019-06-03 06:00:00 15.4 2 Oeste 12 Sudoeste 0 1012.4 -0.5 70
2019-06-03 05:00:00 15.9 8 Sudoeste 12 Sudoeste 0 1012.5 -1.1 65
2019-06-03 04:00:00 16.8 8 Sudoeste 15 Sudeste 0 1012.6 -1.2 60
2019-06-03 03:00:00 18.1 12 Sudeste 22 Sudeste 0 1012.9 -0.8 66
2019-06-03 02:00:00 18.4 12 Sur 19 Sur 0 1013.6 0.2 73
2019-06-03 01:00:00 18.6 7 Sur 17 Sudeste 0 1013.8 0.9 66
2019-06-03 00:00:00 19.6 7 Sur 17 Sudeste 0 1013.7 1.3 54
2019-06-02 23:00:00 20.2 10 Sudeste 18 Sudeste 0 1013.4 1.2 52
2019-06-02 22:00:00 21.2 11 Sudeste 19 Sudeste 0 1012.9 1 52
2019-06-02 21:00:00 22.8 10 Sudeste 24 Sudeste 0 1012.4 0.1 47
2019-06-02 20:00:00 25.8 12 Sudeste 29 Sudeste 0 1012.2 -0.3 36
2019-06-02 19:00:00 28.4 15 Sur 33 Sur 0 1011.9 -0.9 25
2019-06-02 18:00:00 30.1 16 Sudeste 31 Sur 0 1012.3 -0.9 23
2019-06-02 17:00:00 29.8 17 Sudeste 35 Este 0 1012.5 -1.4 25
2019-06-02 16:00:00 28.9 15 Sudeste 33 Sudeste 0 1012.8 -1.8 30
2019-06-02 15:00:00 28 20 Este 32 Sudeste 0 1013.2 -1.5 32
2019-06-02 14:00:00 28.5 13 Sudeste 31 Este 0 1013.9 -1 35
2019-06-02 13:00:00 27.5 13 Sudeste 30 Este 0 1014.6 -0.5 35
2019-06-02 12:00:00 27 13 Sudeste 23 Sudeste 0 1014.7 -0.2 37
2019-06-02 11:00:00 25.7 11 Sur 19 Sudeste 0 1014.9 0.1 40
2019-06-02 10:00:00 23 6 Sur 11 Sur 0 1015.1 0.6 47
2019-06-02 09:00:00 19.9 3 Sur 6 Sur 0 1014.9 0.6 54
2019-06-02 08:00:00 17.2 0 Calma 10 Noroeste 0 1014.8 0.4 61
2019-06-02 07:00:00 14.1 7 Noroeste 8 Noroeste 0 1014.5 -0.3 70
2019-06-02 06:00:00 14.7 2 Nordeste 3 Este 0 1014.3 -0.8 71
2019-06-02 05:00:00 15.1 0 Calma 11 Oeste 0 1014.4 -1.1 74
2019-06-02 04:00:00 15.6 6 Oeste 9 Sudoeste 0 1014.8 -1 68
2019-06-02 03:00:00 16.6 5 Sudoeste 13 Sur 0 1015.1 -0.9 64
2019-06-02 02:00:00 17.3 8 Sur 14 Sur 0 1015.5 -0.2 65
2019-06-02 01:00:00 18.1 8 Sur 13 Sur 0 1015.8 0.9 58
2019-06-02 00:00:00 19 8 Sur 13 Sur 0 1016 1.3 50
2019-06-01 23:00:00 20.1 8 Sur 16 Sudeste 0 1015.7 1.2 43
2019-06-01 22:00:00 21.7 10 Sudeste 21 Sudeste 0 1014.9 0.5 36
2019-06-01 21:00:00 24.1 12 Sur 26 Sur 0 1014.7 -0.2 30
2019-06-01 20:00:00 26.7 14 Sur 31 Sur 0 1014.5 -0.6 26
2019-06-01 19:00:00 28.8 18 Sur 31 Sur 0 1014.4 -1.2 23
2019-06-01 18:00:00 29.8 17 Sur 29 Este 0 1014.9 -1.2 24
2019-06-01 17:00:00 27.6 16 Este 33 Este 0 1015.1 -1.6 31
2019-06-01 16:00:00 27.5 17 Este 36 Sudeste 0 1015.6 -1.4 31
2019-06-01 15:00:00 27.4 17 Sudeste 33 Sudeste 0 1016.1 -1.2 32
2019-06-01 14:00:00 26.9 17 Sudeste 33 Este 0 1016.7 -0.7 35
2019-06-01 13:00:00 27.4 13 Sudeste 26 Este 0 1017 -0.7 34
2019-06-01 12:00:00 27.3 14 Sudeste 25 Sudeste 0 1017.3 -0.4 42
2019-06-01 11:00:00 25.8 9 Sur 20 Sur 0 1017.4 0 48
2019-06-01 10:00:00 22.5 8 Sur 14 Sur 0 1017.7 0.6 61
2019-06-01 09:00:00 20 2 Sudeste 5 Este 0 1017.7 0.9 66
2019-06-01 08:00:00 16.9 3 Norte 6 Norte 0 1017.4 0.6 75
2019-06-01 07:00:00 14.6 4 Norte 8 Oeste 0 1017.1 0.1 83
2019-06-01 06:00:00 15.1 3 Oeste 11 Sudoeste 0 1016.8 -0.2 82
2019-06-01 05:00:00 15.8 8 Sudoeste 14 Sudoeste 0 1016.8 -0.7 81
2019-06-01 04:00:00 16.1 9 Sudoeste 14 Sudoeste 0 1017 -0.8 69
2019-06-01 03:00:00 16.8 10 Sudoeste 13 Sudoeste 0 1017 -1.1 66
2019-06-01 02:00:00 17.5 8 Sur 16 Sur 0 1017.5 -0.6 60
2019-06-01 01:00:00 18 9 Sudeste 14 Sur 0 1017.8 0.1 59
2019-06-01 00:00:00 18.7 10 Sur 16 Sudeste 0 1018.1 0.6 55
2019-05-31 23:00:00 19.4 6 Sur 12 Sur 0 1018.1 0.7 54
2019-05-31 22:00:00 20.8 8 Sur 23 Sudeste 0 1017.7 0.3 50
2019-05-31 21:00:00 22.4 15 Sudeste 28 Sudeste 0 1017.5 0 43
2019-05-31 20:00:00 24.5 16 Sudeste 32 Sur 0 1017.4 -0.4 40
2019-05-31 19:00:00 26.9 15 Sur 30 Sur 0 1017.4 -0.7 37
2019-05-31 18:00:00 28.2 15 Sudeste 28 Sudeste 0 1017.5 -0.9 35
2019-05-31 17:00:00 26.5 14 Sudeste 35 Este 0 1017.8 -0.9 42
2019-05-31 16:00:00 26.3 19 Sudeste 34 Este 0 1018.1 -0.8 39
2019-05-31 15:00:00 26.7 18 Sudeste 40 Este 0 1018.4 -0.7 45
2019-05-31 14:00:00 26.7 17 Sudeste 33 Sudeste 0 1018.7 -0.7 44
2019-05-31 13:00:00 27.3 13 Sudeste 31 Sudeste 0 1018.9 -1.1 44
2019-05-31 12:00:00 26.5 13 Sudeste 27 Sudeste 0 1019.1 -1 42
2019-05-31 11:00:00 23.6 6 Sudeste 13 Este 0 1019.4 -0.6 53
2019-05-31 10:00:00 22.1 3 Este 9 Este 0 1020 0.3 62
2019-05-31 09:00:00 19.8 6 Este 9 Este 0 1020.1 0.7 74
2019-05-31 08:00:00 17.1 2 Norte 5 Nordeste 0 1020 0.5 85
2019-05-31 07:00:00 14.5 5 Norte 6 Norte 0 1019.7 0.2 93
2019-05-31 06:00:00 15 2 Sudeste 4 Sudoeste 0 1019.4 -0.4 93
2019-05-31 05:00:00 15.4 4 Sudoeste 12 Sudoeste 0 1019.5 -0.5 91
2019-05-31 04:00:00 15.6 9 Sudoeste 14 Sudoeste 0 1019.5 -0.6 91
2019-05-31 03:00:00 16 10 Sudoeste 17 Sudoeste 0 1019.8 -0.5 86
2019-05-31 02:00:00 16.2 11 Sudoeste 14 Sudoeste 0 1020 0 81
2019-05-31 01:00:00 16.7 6 Sudoeste 9 Sudoeste 0 1020.1 1.2 77
2019-05-31 00:00:00 17.6 6 Sudoeste 9 Sudoeste 0 1020.3 2.2 69
2019-05-30 23:00:00 18.6 6 Sur 13 Sudeste 0 1020 2.2 63
2019-05-30 22:00:00 20 9 Sudeste 17 Sudeste 0 1018.9 1.2 58
2019-05-30 21:00:00 22.1 9 Sudeste 19 Sudeste 0 1018.1 0 48
2019-05-30 20:00:00 24.4 10 Sur 23 Sudeste 0 1017.8 -0.6 40
2019-05-30 19:00:00 25.1 12 Sudeste 31 Sudeste 0 1017.7 -0.8 35
2019-05-30 18:00:00 25.1 19 Este 33 Este 0 1018.1 -0.7 35
2019-05-30 17:00:00 25.8 17 Sudeste 35 Este 0 1018.4 -0.6 35
2019-05-30 16:00:00 26.5 16 Sudeste 29 Sudeste 0 1018.5 -0.9 39
2019-05-30 15:00:00 26.8 15 Sudeste 29 Sudeste 0 1018.8 -1.1 40
2019-05-30 14:00:00 27.6 12 Sudeste 27 Sudeste 0 1019 -1.2 38
2019-05-30 13:00:00 27.4 8 Sudeste 21 Sudeste 0 1019.4 -1 34
2019-05-30 12:00:00 25.2 3 Este 11 Sudeste 0 1019.9 -0.4 34
2019-05-30 11:00:00 23.9 4 Este 12 Este 0 1020.2 0.2 37
2019-05-30 10:00:00 21.8 4 Nordeste 9 Sudeste 0 1020.4 0.9 45
2019-05-30 09:00:00 18.9 4 Sudeste 6 Sudeste 0 1020.3 1 66
2019-05-30 08:00:00 16.4 3 Sudeste 5 Sudeste 0 1020 0.9 77
2019-05-30 07:00:00 13.4 7 Noroeste 8 Noroeste 0 1019.5 0.5 88
2019-05-30 06:00:00 13.7 6 Noroeste 10 Noroeste 0 1019.3 0.3 88
2019-05-30 05:00:00 14.4 4 Norte 6 Norte 0 1019.1 0.3 87
2019-05-30 04:00:00 15.1 3 Sudoeste 15 Sudoeste 0 1019 0.6 83
2019-05-30 03:00:00 15.8 12 Sudoeste 20 Sudoeste 0 1019 1 81
2019-05-30 02:00:00 16.5 11 Oeste 21 Sudoeste 0 1018.8 1.2 73
2019-05-30 01:00:00 19.4 11 Oeste 33 Noroeste 0 1018.4 1.9 44
2019-05-30 00:00:00 19.7 8 Noroeste 31 Noroeste 0 1018 2.3 41
2019-05-29 23:00:00 20.6 11 Noroeste 24 Noroeste 0 1017.6 2.8 38
2019-05-29 22:00:00 21.1 8 Noroeste 21 Noroeste 0 1016.5 2 36
2019-05-29 21:00:00 22.6 10 Noroeste 35 Oeste 0 1015.7 0.9 31
2019-05-29 20:00:00 24.5 13 Noroeste 32 Oeste 0 1014.8 0 26
2019-05-29 19:00:00 26.2 12 Oeste 34 Oeste 0 1014.5 -0.7 24
2019-05-29 18:00:00 26.7 18 Oeste 35 Oeste 0 1014.8 -0.5 23
2019-05-29 17:00:00 26.7 17 Oeste 41 Oeste 0 1014.8 -1 24
2019-05-29 16:00:00 26.1 19 Oeste 38 Noroeste 0 1015.2 -0.7 26
2019-05-29 15:00:00 26 11 Oeste 35 Oeste 0 1015.3 -0.8 25
2019-05-29 14:00:00 24.9 18 Oeste -- -- -- 1015.8 -0.5 29
2019-05-29 13:00:00 24 15 Noroeste 36 Noroeste 0 1015.9 -0.8 30
2019-05-29 12:00:00 21.8 24 Noroeste 48 Oeste 0 1016.1 0 34
2019-05-29 11:00:00 20.8 15 Noroeste 44 Noroeste 0 1016.3 0.6 37
2019-05-29 10:00:00 18.6 20 Noroeste 50 Noroeste 0 1016.7 1.4 42
2019-05-29 09:00:00 18 15 Noroeste 41 Noroeste 0 1016.1 1.7 43
2019-05-29 08:00:00 16.9 13 Norte 36 Norte 0 1015.7 1.7 49
2019-05-29 07:00:00 14.6 15 Norte 53 Oeste 0 1015.3 1.1 53
2019-05-29 06:00:00 14.9 24 Noroeste 58 Oeste 0 1014.4 0.2 51
2019-05-29 05:00:00 15.1 24 Noroeste 57 Noroeste 0 1014 0 50
2019-05-29 04:00:00 15.3 18 Noroeste 48 Noroeste 0 1014.2 0.9 49
2019-05-29 03:00:00 15.5 17 Norte 38 Norte 0 1014.2 1.5 49
2019-05-29 02:00:00 16 15 Norte 46 Norte 0 1014 1.7 47
2019-05-29 01:00:00 16.5 13 Norte 47 Norte 0 1013.3 1.6 45
2019-05-29 00:00:00 17.3 19 Noroeste 47 Noroeste 0 1012.7 2.1 40
2019-05-28 23:00:00 17.8 13 Noroeste 40 Norte 0 1012.3 2.7 38
2019-05-28 22:00:00 18.7 10 Noroeste 37 Norte 0 1011.7 3 40
2019-05-28 21:00:00 20.1 15 Noroeste 59 Noroeste 0 1010.6 1.6 39
2019-05-28 20:00:00 21.8 15 Noroeste 61 Noroeste 0 1009.6 0.3 34
2019-05-28 19:00:00 23.7 21 Noroeste 66 Norte 0 1008.7 -0.3 30
2019-05-28 18:00:00 24.8 23 Noroeste 61 Noroeste 0 1009 0 27
2019-05-28 17:00:00 24.1 24 Noroeste 58 Oeste 0 1009.3 0.1 30
2019-05-28 16:00:00 26 19 Oeste 50 Oeste 0 1009 -0.3 29
2019-05-28 15:00:00 25.4 31 Oeste 54 Oeste 0 1009 -0.4 28
2019-05-28 14:00:00 24.7 21 Noroeste 52 Noroeste 0 1009.2 0.1 28
2019-05-28 13:00:00 23.7 19 Noroeste 46 Oeste 0 1009.3 -0.2 30
2019-05-28 12:00:00 21.9 19 Noroeste 59 Oeste 0 1009.4 0.1 33
2019-05-28 11:00:00 20.3 25 Noroeste 60 Oeste 0 1009.1 -0.4 36
2019-05-28 10:00:00 18.5 31 Noroeste 57 Noroeste 0 1009.5 1.1 40
2019-05-28 09:00:00 17.6 24 Noroeste 47 Noroeste 0 1009.3 1.2 43
2019-05-28 08:00:00 16.9 18 Noroeste 50 Noroeste 0 1009.5 1.1 45
2019-05-28 07:00:00 15.6 28 Noroeste 55 Noroeste 0 1008.4 0.3 48
2019-05-28 06:00:00 15.7 11 Noroeste 30 Noroeste 0 1008.1 0.3 49
2019-05-28 05:00:00 16.2 5 Norte 31 Noroeste 0 1008.4 0.4 48
2019-05-28 04:00:00 17.2 12 Norte 58 Noroeste 0 1008.1 0.1 46
2019-05-28 03:00:00 18.2 25 Oeste 49 Oeste 0 1007.8 -0.3 42
2019-05-28 02:00:00 19.1 14 Noroeste 48 Noroeste 0 1008 0.7 43
2019-05-28 01:00:00 20.2 22 Noroeste 54 Noroeste 0 1008 1.8 46
2019-05-28 00:00:00 20.9 10 Noroeste 32 Noroeste 0 1008.1 2.6 49
2019-05-27 23:00:00 22.1 13 Noroeste 36 Noroeste 0 1007.3 2.3 47
2019-05-27 22:00:00 23.2 21 Oeste 37 Oeste 0 1006.2 1.2 43
2019-05-27 21:00:00 24.8 12 Noroeste 34 Noroeste 0 1005.5 0.4 39
2019-05-27 20:00:00 26.8 7 Noroeste 34 Oeste 0 1005 -0.3 37
2019-05-27 19:00:00 26.4 15 Oeste 35 Oeste 0 1005 -0.7 37
2019-05-27 18:00:00 28.5 10 Sur 34 Noroeste 0 1005.1 -1.1 36
2019-05-27 17:00:00 27.7 15 Oeste 43 Oeste 0 1005.3 -1.5 33
2019-05-27 16:00:00 28.8 17 Noroeste 32 Noroeste 0 1005.7 -1.9 30
2019-05-27 15:00:00 27.9 15 Noroeste 36 Noroeste 0 1006.2 -1.7 33
2019-05-27 14:00:00 26.5 16 Noroeste 33 Noroeste 0 1006.8 -1.6 35
2019-05-27 13:00:00 25.2 16 Noroeste 37 Noroeste 0 1007.6 -0.9 37
2019-05-27 12:00:00 22.7 19 Noroeste 40 Noroeste 0 1007.9 -0.4 42
2019-05-27 11:00:00 21.2 24 Noroeste 48 Noroeste 0 1008.4 0.1 47
2019-05-27 10:00:00 20 27 Noroeste 50 Noroeste 0 1008.5 0.2 48
2019-05-27 09:00:00 19.2 19 Noroeste 46 Oeste 0 1008.3 0 50
2019-05-27 08:00:00 18.6 13 Norte 29 Norte 0 1008.3 -0.1 53
2019-05-27 07:00:00 16.3 12 Norte 29 Noroeste 0 1008.3 -0.6 61
2019-05-27 06:00:00 16.9 10 Norte 49 Noroeste 0 1008.3 -0.9 59
2019-05-27 05:00:00 17.5 29 Noroeste 56 Noroeste 0 1008.4 -1.2 56
2019-05-27 04:00:00 17.8 30 Noroeste 53 Noroeste 0 1008.9 -1.1 55
2019-05-27 03:00:00 18.1 21 Noroeste 43 Noroeste 0 1009.2 -0.7 54
2019-05-27 02:00:00 18.4 16 Noroeste 51 Noroeste 0 1009.6 -0.4 53
2019-05-27 01:00:00 19.1 25 Noroeste 48 Noroeste 0 1010 0.9 50
2019-05-27 00:00:00 19.8 20 Noroeste 46 Noroeste 0 1009.9 0.9 48
2019-05-26 23:00:00 20.7 17 Noroeste 45 Noroeste 0 1010 1.1 46
2019-05-26 22:00:00 21.9 23 Noroeste 45 Noroeste 0 1009.1 0.2 42
2019-05-26 21:00:00 23 18 Noroeste 35 Noroeste 0 1009 -0.3 39
2019-05-26 20:00:00 24.4 21 Noroeste 39 Noroeste 0 1008.9 -0.8 35
2019-05-26 19:00:00 26.3 16 Noroeste 37 Noroeste 0 1008.9 -1.3 32
2019-05-26 18:00:00 27.1 16 Oeste 44 Oeste 0 1009.3 -1.4 31
2019-05-26 17:00:00 27 21 Oeste 36 Oeste 0 1009.7 -1.3 32
2019-05-26 16:00:00 27.2 16 Oeste 38 Noroeste 0 1010.2 -1.3 32
2019-05-26 15:00:00 26.2 18 Noroeste 33 Oeste 0 1010.7 -1.2 33
2019-05-26 14:00:00 25.9 14 Noroeste 37 Oeste 0 1011 -1.3 34
2019-05-26 13:00:00 24.3 21 Noroeste 39 Oeste 0 1011.5 -1 37
2019-05-26 12:00:00 22.6 21 Noroeste 43 Noroeste 0 1011.9 -0.5 41
2019-05-26 11:00:00 21 18 Noroeste 51 Noroeste 0 1012.3 -0.3 42
2019-05-26 10:00:00 19.4 17 Noroeste 45 Noroeste 0 1012.5 0.2 47
2019-05-26 09:00:00 18.2 19 Noroeste 43 Norte 0 1012.4 0.3 49
2019-05-26 08:00:00 17.2 17 Noroeste 44 Norte 0 1012.6 0.5 52
2019-05-26 07:00:00 15.4 14 Noroeste 45 Noroeste 0 1012.3 0 58
2019-05-26 06:00:00 15.6 16 Noroeste 51 Oeste 0 1012.1 -0.2 59
2019-05-26 05:00:00 16 23 Noroeste 63 Noroeste 0 1012.1 -0.5 57
2019-05-26 04:00:00 16.4 18 Noroeste 50 Noroeste 0 1012.3 -0.6 57
2019-05-26 03:00:00 17.1 22 Noroeste 58 Noroeste 0 1012.3 -0.5 55
2019-05-26 02:00:00 17.5 22 Noroeste 53 Noroeste 0 1012.6 -0.1 54
2019-05-26 01:00:00 18.2 17 Noroeste 47 Oeste 0 1012.9 1 54
2019-05-26 00:00:00 18.9 22 Noroeste 40 Noroeste 0 1012.8 1.3 54
2019-05-25 23:00:00 19.1 15 Norte 41 Norte 0 1012.7 1.9 55
2019-05-25 22:00:00 20.2 15 Norte 36 Norte 0 1011.9 1.4 53
2019-05-25 21:00:00 22.2 17 Noroeste 37 Norte 0 1011.5 0.6 46
2019-05-25 20:00:00 23.7 13 Noroeste 29 Norte 0 1010.8 0.3 41
2019-05-25 19:00:00 23.3 6 Nordeste 26 Noroeste 0 1010.5 -0.4 55
2019-05-25 18:00:00 22.8 14 Noroeste 27 Noroeste 0.2 1010.9 -0.6 48
2019-05-25 17:00:00 25 8 Noroeste 26 Norte 0 1010.5 -1.3 42
2019-05-25 16:00:00 25.6 10 Noroeste 32 Noroeste 0 1010.9 -1.4 39
2019-05-25 15:00:00 25 14 Oeste 32 Noroeste 0 1011.5 -1 39
2019-05-25 14:00:00 24.6 17 Oeste 37 Noroeste 0 1011.8 -0.7 41
2019-05-25 13:00:00 23.1 17 Noroeste 38 Oeste 0 1012.3 0.1 47
2019-05-25 12:00:00 21.7 18 Noroeste 39 Noroeste 0 1012.5 0.7 48
2019-05-25 11:00:00 20.4 13 Noroeste 42 Noroeste 0 1012.5 1.1 54
2019-05-25 10:00:00 18.5 15 Noroeste 36 Oeste 0 1012.2 1.3 57
2019-05-25 09:00:00 16.7 12 Noroeste 48 Noroeste 0 1011.8 1.1 64
2019-05-25 08:00:00 15.6 16 Noroeste 38 Noroeste 0 1011.4 0.9 68
2019-05-25 07:00:00 15.6 25 Noroeste 44 Noroeste 0 1010.9 0.5 68
2019-05-25 06:00:00 15.5 19 Noroeste 41 Noroeste 0 1010.7 0.2 69
2019-05-25 05:00:00 15.6 18 Noroeste 38 Noroeste 0 1010.5 -0.3 69
2019-05-25 04:00:00 15.2 12 Noroeste 34 Noroeste 0 1010.4 -0.4 76
2019-05-25 03:00:00 15.3 15 Norte 40 Norte 0 1010.5 -0.1 78
2019-05-25 02:00:00 15 11 Norte 32 Norte 0 1010.8 0.4 80
2019-05-25 01:00:00 15.1 14 Norte 29 Norte 0 1010.8 0.9 86
2019-05-25 00:00:00 15 12 Norte 23 Norte 0 1010.6 0.9 92
2019-05-24 23:00:00 15.4 6 Norte 14 Norte 0.2 1010.4 1 97
2019-05-24 22:00:00 15.5 4 Norte 7 Norte 0.2 1009.9 0.5 96
2019-05-24 21:00:00 15.7 3 Nordeste 12 Nordeste 3.6 1009.7 0.1 96
2019-05-24 20:00:00 15.9 4 Sudeste 9 Sudeste 1.8 1009.4 -0.4 94
2019-05-24 19:00:00 16.9 4 Este 17 Sudeste 1.8 1009.4 -1 89
2019-05-24 18:00:00 18.3 10 Sudeste 20 Sur 0 1009.6 -1.2 81
2019-05-24 17:00:00 18.7 3 Este 13 Oeste 0 1009.8 -1.3 74
2019-05-24 16:00:00 18.6 7 Noroeste 14 Oeste 0.2 1010.4 -0.9 84
2019-05-24 15:00:00 17.1 6 Norte 16 Norte 0.2 1010.8 -0.6 94
2019-05-24 14:00:00 16.3 6 Nordeste 13 Nordeste 2.8 1011.1 -0.5 97
2019-05-24 13:00:00 15.6 6 Norte 14 Norte 3 1011.3 0.2 97
2019-05-24 12:00:00 15.2 6 Norte 24 Norte 1.2 1011.4 0.8 97
2019-05-24 11:00:00 15.2 7 Norte 21 Norte 4.4 1011.6 1.3 96
2019-05-24 10:00:00 15.8 9 Norte 23 Norte 0 1011.1 0.9 94
2019-05-24 09:00:00 16.2 7 Nordeste 16 Nordeste 0 1010.6 1 93
2019-05-24 08:00:00 16.2 7 Norte 13 Norte 0 1010.3 0 94
2019-05-24 07:00:00 16.9 5 Norte 13 Noroeste 0 1010.2 -0.4 96
2019-05-24 06:00:00 16.8 10 Noroeste 16 Este 2.8 1009.6 -0.8 96
2019-05-24 05:00:00 17.3 5 Este 18 Sudoeste 5 1010.3 0.2 95
2019-05-24 04:00:00 17.4 9 Oeste 15 Sur 0 1010.6 -0.5 90
2019-05-24 03:00:00 17.7 11 Sudoeste 18 Sur 0 1010.4 -0.4 89
2019-05-24 02:00:00 18.5 4 Oeste 12 Sur 0 1010.1 -0.5 86
2019-05-24 01:00:00 18.8 9 Sur 15 Sur 0 1011.1 0.7 81
2019-05-24 00:00:00 19 7 Sur 19 Sudeste 0 1010.8 0.9 79
2019-05-23 23:00:00 19.5 7 Sur 13 Sur 0 1010.6 0.7 74
2019-05-23 22:00:00 19.9 6 Sur 13 Este 0 1010.4 0.4 66
2019-05-23 21:00:00 21.3 5 Sudeste 15 Sudeste 0 1009.9 -0.2 54
2019-05-23 20:00:00 22.5 8 Sudeste 18 Sudeste 0 1009.9 -0.3 55
2019-05-23 19:00:00 23.2 8 Sudeste 21 Sudeste 0 1010 -0.5 56
2019-05-23 18:00:00 23.9 11 Sudeste 26 Sudeste 0 1010.1 -0.9 57
2019-05-23 17:00:00 25.2 13 Sudeste 33 Sudeste 0 1010.2 -1.1 55
2019-05-23 16:00:00 27.7 15 Sudeste 28 Sudeste 0 1010.5 -1.3 51
2019-05-23 15:00:00 27.9 16 Sudeste 32 Sudeste 0 1011 -1.4 48
2019-05-23 14:00:00 28.1 15 Sur 28 Sur 0 1011.3 -1.4 46
2019-05-23 13:00:00 27.9 13 Sur 24 Sur 0 1011.8 -1.1 45
2019-05-23 12:00:00 26.6 11 Sur 19 Sudeste 0 1012.4 -0.5 49
2019-05-23 11:00:00 23.7 7 Sur 12 Sur 0 1012.7 -0.2 55
2019-05-23 10:00:00 21.5 5 Sur 9 Sur 0 1012.9 0.2 62
2019-05-23 09:00:00 18.9 4 Sudeste 7 Sudeste 0 1012.9 0.2 69
2019-05-23 08:00:00 15.7 3 Norte 7 Nordeste 0 1012.9 0.1 77
2019-05-23 07:00:00 13.4 4 Norte 6 Norte 0 1012.7 -0.2 87
2019-05-23 06:00:00 13.8 3 Este 4 Sudeste 0 1012.7 -0.4 86
2019-05-23 05:00:00 14.3 3 Este 3 Este 0 1012.8 -0.5 85
2019-05-23 04:00:00 15 3 Sudeste 6 Sudoeste 0 1012.9 -0.5 83
2019-05-23 03:00:00 15.6 3 Sudoeste 11 Oeste 0 1013.1 -0.1 80
2019-05-23 02:00:00 16.2 7 Sudoeste 12 Sudoeste 0 1013.3 0.2 76
2019-05-23 01:00:00 16.8 8 Sudoeste 13 Sudoeste 0 1013.4 0.9 73
2019-05-23 00:00:00 17.5 8 Sur 13 Sur 0 1013.2 1 66
2019-05-22 23:00:00 18.2 7 Sudeste 14 Sudeste 0 1013.1 1.2 66
2019-05-22 22:00:00 19.1 7 Sudeste 18 Sudeste 0 1012.5 0.8 63
2019-05-22 21:00:00 21.3 12 Sur 27 Sur 0 1012.2 0.3 54
2019-05-22 20:00:00 23.3 10 Sudeste 26 Sudeste 0 1011.9 0 51
2019-05-22 19:00:00 24 17 Sudeste 29 Este 0 1011.7 -0.5 40
2019-05-22 18:00:00 24.5 18 Sudeste 34 Sudeste 0 1011.9 -0.7 37
2019-05-22 17:00:00 25.3 18 Sudeste 35 Sudeste 0 1011.9 -1 34
2019-05-22 16:00:00 26.2 17 Sudeste 35 Sudeste 0 1012.2 -1 32
2019-05-22 15:00:00 27.5 18 Sudeste 31 Sudeste 0 1012.6 -1.1 30
2019-05-22 14:00:00 28 12 Sudeste 25 Sudeste 0 1012.9 -0.8 34
2019-05-22 13:00:00 27.1 6 Sur 16 Sur 0 1013.2 -0.6 30
2019-05-22 12:00:00 25.5 6 Sudeste 13 Sur 0 1013.7 -0.1 30
2019-05-22 11:00:00 23.6 6 Sur 11 Sudeste 0 1013.7 0 42
2019-05-22 10:00:00 20.1 3 Noroeste 8 Sur 0 1013.8 0.6 61
2019-05-22 09:00:00 18.7 4 Nordeste 9 Sudeste 0 1013.8 1 71
2019-05-22 08:00:00 14.4 3 Norte 8 Noroeste 0 1013.7 1 87
2019-05-22 07:00:00 12.9 8 Noroeste 10 Noroeste 0 1013.2 0.6 91
2019-05-22 06:00:00 13.1 2 Oeste 5 Sur 0 1012.8 0.2 90
2019-05-22 05:00:00 13.3 4 Sudoeste 6 Sur 0 1012.7 0.3 88
2019-05-22 04:00:00 13.6 2 Noroeste 8 Norte 0 1012.6 0.2 85
2019-05-22 03:00:00 14.6 5 Norte 7 Noroeste 0 1012.6 0.5 84
2019-05-22 02:00:00 15.4 0 Calma 6 Este 0 1012.4 0.7 83
2019-05-22 01:00:00 16.6 4 Sudoeste 6 Oeste 0 1012.4 1.5 83
2019-05-22 00:00:00 16.9 4 Oeste 8 Oeste 0 1012.1 1.7 83
2019-05-21 23:00:00 17.3 4 Oeste 8 Sur 0 1011.7 1.6 79
2019-05-21 22:00:00 18.4 5 Sur 11 Sudeste 0 1010.9 1.1 71
2019-05-21 21:00:00 19.7 6 Sudeste 22 Sudeste 0 1010.4 0.5 68
2019-05-21 20:00:00 20.9 11 Sudeste 26 Sudeste 0 1010.1 0.1 64
2019-05-21 19:00:00 23.8 13 Sudeste 24 Sudeste 0 1009.8 -0.3 51
2019-05-21 18:00:00 25.6 16 Sur 34 Sur 0 1009.9 -0.2 45
2019-05-21 17:00:00 25.4 14 Sudeste 32 Sudeste 0 1010 -0.6 44
2019-05-21 16:00:00 25.5 18 Sudeste 32 Este 0 1010.1 -0.8 42
2019-05-21 15:00:00 25.7 15 Sudeste 27 Sudeste 0 1010.1 -1 36
2019-05-21 14:00:00 26.7 14 Sudeste 29 Sudeste 0 1010.6 -0.8 35
2019-05-21 13:00:00 25.8 10 Sudeste 22 Sudeste 0 1010.9 -0.6 35
2019-05-21 12:00:00 23.6 5 Este 12 Sudeste 0 1011.1 -0.3 33
2019-05-21 11:00:00 21.8 5 Este 11 Este 0 1011.4 0.2 41
2019-05-21 10:00:00 19.5 3 Sudeste 11 Sudeste 0 1011.5 0.9 54
2019-05-21 09:00:00 17 4 Sudeste 8 Sudeste 0 1011.4 1.2 60
2019-05-21 08:00:00 13.8 2 Sudeste 9 Norte 0 1011.2 1.3 66
2019-05-21 07:00:00 10.7 6 Noroeste 10 Norte 0 1010.6 0.9 76
2019-05-21 06:00:00 11 2 Noroeste 5 Noroeste 0 1010.2 0.3 75
2019-05-21 05:00:00 11.4 3 Sudoeste 8 Norte 0 1009.9 0 72
2019-05-21 04:00:00 12 6 Norte 10 Norte 0 1009.7 0.1 70
2019-05-21 03:00:00 13.1 0 Calma 5 Norte 0 1009.9 0.6 68
2019-05-21 02:00:00 13.9 4 Norte 8 Noroeste 0 1009.9 0.9 65
2019-05-21 01:00:00 14.9 5 Norte 8 Noroeste 0 1009.6 1.6 62
2019-05-21 00:00:00 15.9 4 Norte 9 Sudeste 0 1009.3 1.8 58